Time;durP1;ratioP1;P1;durP2;ratioP2;P2;SDS_P1;SDS_P2;PMS_P1;PMS_P2;Temp;Humidity;BMP_temperature;BMP_pressure;BME280_temperature;BME280_humidity;BME280_pressure;Samples;Min_cycle;Max_cycle;Signal;HPM_P1;HPM_P2
2023/04/15 00:01:06;;;;;;;0.50;0.50;;;;;;;12.56;100.00;96267.97;4985164;28;20527;-65
2023/04/15 00:03:34;;;;;;;0.57;0.57;;;;;;;12.10;100.00;96206.22;4985124;28;20058;-63
2023/04/15 00:06:01;;;;;;;0.55;0.55;;;;;;;12.21;100.00;96218.09;4984926;28;20140;-62
2023/04/15 00:08:28;;;;;;;0.50;0.50;;;;;;;12.45;100.00;96249.75;4983944;28;20073;-64
2023/04/15 00:10:55;;;;;;;0.50;0.50;;;;;;;12.49;100.00;96259.66;4985166;28;20538;-63
2023/04/15 00:13:22;;;;;;;0.60;0.60;;;;;;;12.43;100.00;96254.91;4985252;28;20062;-63
2023/04/15 00:15:49;;;;;;;0.60;0.60;;;;;;;11.77;100.00;96176.16;5001464;28;20065;-63
2023/04/15 00:18:15;;;;;;;0.57;0.57;;;;;;;12.10;100.00;96207.03;5003262;28;20077;-63
2023/04/15 00:20:42;;;;;;;0.57;0.57;;;;;;;12.52;100.00;96239.41;5004657;28;20050;-63
2023/04/15 00:23:09;;;;;;;0.50;0.50;;;;;;;12.49;100.00;96218.00;5004589;28;20143;-63
2023/04/15 00:25:35;;;;;;;0.50;0.50;;;;;;;12.27;100.00;96188.72;5003393;28;20058;-63
2023/04/15 00:28:02;;;;;;;0.60;0.60;;;;;;;12.60;100.00;96246.53;5004350;28;20567;-62
2023/04/15 00:30:30;;;;;;;0.50;0.50;;;;;;;12.73;100.00;96255.22;5004488;28;20057;-63
2023/04/15 00:32:57;;;;;;;0.60;0.60;;;;;;;12.01;100.00;96153.13;5003244;28;20089;-63
2023/04/15 00:35:24;;;;;;;0.60;0.60;;;;;;;12.63;100.00;96245.72;5004571;28;20628;-63
2023/04/15 00:37:50;;;;;;;0.57;0.57;;;;;;;12.57;100.00;96230.66;5003339;28;20426;-62
2023/04/15 00:40:20;;;;;;;0.60;0.60;;;;;;;12.66;100.00;96242.13;5003194;28;20050;-62
2023/04/15 00:42:47;;;;;;;0.60;0.60;;;;;;;12.72;100.00;96232.22;5002909;28;20050;-64
2023/04/15 00:45:14;;;;;;;0.60;0.60;;;;;;;12.62;100.00;96210.00;5004432;28;20050;-63
2023/04/15 00:47:42;;;;;;;0.60;0.60;;;;;;;12.52;100.00;96225.53;5004622;28;20053;-61
2023/04/15 00:50:11;;;;;;;0.60;0.60;;;;;;;11.99;100.00;96166.59;5002962;28;20049;-62
2023/04/15 00:52:38;;;;;;;0.55;0.55;;;;;;;12.51;100.00;96265.63;5005252;28;20115;-62
2023/04/15 00:55:06;;;;;;;0.50;0.50;;;;;;;12.59;100.00;96267.19;5008578;28;20140;-63
2023/04/15 00:57:34;;;;;;;0.60;0.60;;;;;;;12.60;100.00;96279.09;5008591;28;20061;-63
2023/04/15 01:00:01;;;;;;;0.60;0.60;;;;;;;12.61;100.00;96289.81;5008688;28;20153;-62
2023/04/15 01:02:28;;;;;;;0.60;0.60;;;;;;;12.53;100.00;96285.47;5006801;28;20405;-63
2023/04/15 01:04:55;;;;;;;0.50;0.50;;;;;;;12.41;100.00;96277.53;5008498;28;20465;-62
2023/04/15 01:07:22;;;;;;;0.60;0.60;;;;;;;12.27;100.00;96249.00;5008209;28;20300;-63
2023/04/15 01:09:49;;;;;;;0.60;0.60;;;;;;;12.28;100.00;96208.97;5007734;28;20088;-63
2023/04/15 01:12:16;;;;;;;0.60;0.60;;;;;;;12.37;100.00;96240.66;5008078;28;20480;-62
2023/04/15 01:14:43;;;;;;;0.60;0.60;;;;;;;12.49;100.00;96231.13;5002816;28;20047;-62
2023/04/15 01:17:10;;;;;;;0.60;0.60;;;;;;;12.48;100.00;96238.66;4987006;28;20058;-62
2023/04/15 01:19:37;;;;;;;0.60;0.60;;;;;;;12.13;100.00;96197.09;4988482;28;20046;-65
2023/04/15 01:22:04;;;;;;;0.60;0.60;;;;;;;12.49;100.00;96256.88;4986968;28;20050;-62
2023/04/15 01:24:34;;;;;;;0.55;0.55;;;;;;;12.16;100.00;96199.06;4987865;28;20548;-65
2023/04/15 01:27:02;;;;;;;0.60;0.60;;;;;;;12.46;100.00;96240.22;4986721;28;20501;-63
2023/04/15 01:29:31;;;;;;;0.60;0.60;;;;;;;12.44;100.00;96232.28;4988114;28;20144;-62
2023/04/15 01:31:58;;;;;;;0.60;0.60;;;;;;;12.42;100.00;96229.16;4988246;28;20050;-62
2023/04/15 01:34:25;;;;;;;0.60;0.60;;;;;;;12.36;100.00;96246.63;4988019;28;20054;-63
2023/04/15 01:36:51;;;;;;;0.60;0.60;;;;;;;12.34;100.00;96244.25;4987973;28;20081;-63
2023/04/15 01:39:18;;;;;;;0.50;0.50;;;;;;;12.35;100.00;96273.59;4987831;28;20054;-62
2023/04/15 01:41:45;;;;;;;0.60;0.60;;;;;;;12.17;100.00;96214.56;4987927;28;20138;-63
2023/04/15 01:44:11;;;;;;;0.57;0.57;;;;;;;12.07;100.00;96190.38;4988162;28;20062;-62
2023/04/15 01:46:38;;;;;;;0.50;0.50;;;;;;;12.16;100.00;96227.63;4988078;28;20128;-63
2023/04/15 01:49:05;;;;;;;0.50;0.50;;;;;;;12.43;100.00;96269.59;4987983;28;20446;-62
2023/04/15 01:51:32;;;;;;;0.55;0.55;;;;;;;12.38;100.00;96278.34;5002681;28;20124;-62
2023/04/15 01:53:58;;;;;;;0.55;0.55;;;;;;;12.09;100.00;96207.44;4987837;28;20050;-63
2023/04/15 01:56:25;;;;;;;0.50;0.50;;;;;;;11.97;100.00;96207.84;4986107;28;20050;-63
2023/04/15 01:58:52;;;;;;;0.50;0.50;;;;;;;12.25;100.00;96263.28;4987510;28;20062;-62
2023/04/15 02:01:19;;;;;;;0.60;0.60;;;;;;;12.24;100.00;96272.81;4987813;28;20082;-63
2023/04/15 02:03:46;;;;;;;0.52;0.52;;;;;;;12.27;100.00;96263.69;4985555;28;20480;-63
2023/04/15 02:06:14;;;;;;;0.50;0.50;;;;;;;12.01;100.00;96214.19;5002070;28;20521;-63
2023/04/15 02:08:40;;;;;;;0.50;0.50;;;;;;;12.19;100.00;96243.47;4987541;28;20062;-62
2023/04/15 02:11:08;;;;;;;0.57;0.57;;;;;;;12.24;100.00;96261.72;4987872;28;20055;-63
2023/04/15 02:13:35;;;;;;;0.60;0.60;;;;;;;12.22;100.00;96266.88;4986923;28;20140;-63
2023/04/15 02:16:02;;;;;;;0.60;0.60;;;;;;;12.16;100.00;96255.38;5004737;28;20108;-63
2023/04/15 02:18:29;;;;;;;0.50;0.50;;;;;;;12.22;100.00;96269.66;5006750;28;20060;-63
2023/04/15 02:20:57;;;;;;;0.55;0.55;;;;;;;12.24;100.00;96272.81;5006469;28;20058;-62
2023/04/15 02:23:24;;;;;;;0.50;0.50;;;;;;;12.30;100.00;96276.00;5005517;28;20057;-65
2023/04/15 02:25:51;;;;;;;0.50;0.50;;;;;;;12.25;100.00;96334.72;5005120;28;20054;-62
2023/04/15 02:28:19;;;;;;;0.57;0.57;;;;;;;12.28;100.00;96284.72;5006859;28;20598;-63
2023/04/15 02:30:51;;;;;;;0.60;0.60;;;;;;;12.24;100.00;96289.47;5005710;28;20147;-65
2023/04/15 02:33:19;;;;;;;0.60;0.60;;;;;;;12.15;100.00;96297.44;5005114;28;20058;-62
2023/04/15 02:35:46;;;;;;;0.60;0.60;;;;;;;12.10;100.00;96289.50;5005011;28;20568;-62
2023/04/15 02:38:16;;;;;;;0.50;0.50;;;;;;;12.12;100.00;96292.69;5005228;28;20619;-62
2023/04/15 02:40:43;;;;;;;0.50;0.50;;;;;;;11.46;100.00;96190.84;5003801;28;20053;-63
2023/04/15 02:43:10;;;;;;;0.50;0.50;;;;;;;11.94;100.00;96247.50;5004026;28;20245;-62
2023/04/15 02:45:37;;;;;;;0.50;0.50;;;;;;;12.20;100.00;96272.06;5005414;28;20054;-61
2023/04/15 02:48:05;;;;;;;0.50;0.50;;;;;;;12.01;99.37;96231.63;5006339;28;20050;-62
2023/04/15 02:50:32;;;;;;;0.50;0.50;;;;;;;12.26;98.56;96275.19;5005998;28;20064;-62
2023/04/15 02:53:00;;;;;;;0.60;0.60;;;;;;;11.92;96.89;96238.75;5005943;28;20053;-64
2023/04/15 02:55:27;;;;;;;0.50;0.50;;;;;;;11.72;99.21;96229.28;5006078;28;20487;-63
2023/04/15 02:57:54;;;;;;;0.50;0.50;;;;;;;11.38;100.00;96219.75;5005936;28;20053;-63
2023/04/15 03:00:24;;;;;;;0.57;0.57;;;;;;;11.37;100.00;96229.25;5006090;28;20141;-64
2023/04/15 03:02:55;;;;;;;0.50;0.50;;;;;;;11.24;100.00;96270.41;5006073;28;20053;-63
2023/04/15 03:05:25;;;;;;;0.52;0.52;;;;;;;11.44;100.00;96268.06;5006097;28;20084;-62
2023/04/15 03:07:52;;;;;;;0.50;0.50;;;;;;;11.59;100.00;96264.13;5005831;28;20084;-62
2023/04/15 03:10:19;;;;;;;0.50;0.50;;;;;;;11.68;100.00;96281.22;5005747;28;20137;-65
2023/04/15 03:12:46;;;;;;;0.50;0.50;;;;;;;11.75;100.00;96283.97;5005605;28;20065;-62
2023/04/15 03:15:12;;;;;;;0.50;0.50;;;;;;;11.80;100.00;96297.44;4999862;28;20061;-62
2023/04/15 03:17:39;;;;;;;0.60;0.60;;;;;;;11.43;100.00;96216.59;4984924;28;20398;-63
2023/04/15 03:20:06;;;;;;;0.50;0.50;;;;;;;11.97;100.00;96291.09;4984797;28;20148;-65
2023/04/15 03:22:33;;;;;;;0.52;0.52;;;;;;;12.06;100.00;96283.19;4984647;28;20520;-63
2023/04/15 03:24:59;;;;;;;0.50;0.50;;;;;;;12.20;100.00;96288.72;4984265;28;20047;-62
2023/04/15 03:27:26;;;;;;;0.50;0.50;;;;;;;11.79;100.00;96230.06;4984734;28;20053;-63
2023/04/15 03:29:53;;;;;;;0.50;0.50;;;;;;;11.99;100.00;96283.16;4985553;28;20053;-62
2023/04/15 03:32:19;;;;;;;0.50;0.50;;;;;;;11.85;100.00;96266.53;4985961;28;20105;-63
2023/04/15 03:34:46;;;;;;;0.50;0.50;;;;;;;11.86;100.00;96263.38;4984386;28;20054;-62
2023/04/15 03:37:13;;;;;;;0.60;0.60;;;;;;;11.65;100.00;96251.50;4985566;28;20050;-62
2023/04/15 03:39:40;;;;;;;0.60;0.60;;;;;;;11.95;100.00;96299.00;4984598;28;20146;-63
2023/04/15 03:42:07;;;;;;;0.50;0.50;;;;;;;12.05;100.00;96326.00;4985867;28;20050;-62
2023/04/15 03:44:33;;;;;;;0.60;0.60;;;;;;;11.68;100.00;96232.03;4985372;28;20445;-63
2023/04/15 03:47:00;;;;;;;0.50;0.50;;;;;;;12.07;100.00;96280.00;4985449;28;20065;-64
2023/04/15 03:49:27;;;;;;;0.57;0.57;;;;;;;12.13;100.00;96289.50;4984049;28;20046;-62
2023/04/15 03:51:54;;;;;;;0.50;0.50;;;;;;;11.30;100.00;96148.84;4985759;28;20077;-63
2023/04/15 03:54:20;;;;;;;0.50;0.50;;;;;;;12.10;100.00;96289.50;4983851;28;20062;-64
2023/04/15 03:56:47;;;;;;;0.50;0.50;;;;;;;12.17;100.00;96303.38;4985542;28;20046;-62
2023/04/15 03:59:14;;;;;;;0.57;0.57;;;;;;;11.84;100.00;96253.84;4985503;28;20506;-64
2023/04/15 04:01:40;;;;;;;0.50;0.50;;;;;;;12.23;100.00;96321.22;4985273;28;21021;-62
2023/04/15 04:04:07;;;;;;;0.50;0.50;;;;;;;11.06;100.00;96144.09;4985448;28;20065;-63
2023/04/15 04:06:34;;;;;;;0.60;0.60;;;;;;;11.89;99.76;96283.97;4985242;28;20050;-63
2023/04/15 04:09:01;;;;;;;0.50;0.50;;;;;;;12.24;99.59;96345.00;5000374;28;20057;-64
2023/04/15 04:11:28;;;;;;;0.60;0.60;;;;;;;11.92;98.97;96311.72;4999866;28;20101;-63
2023/04/15 04:13:55;;;;;;;0.50;0.50;;;;;;;12.10;99.90;96345.81;4965039;28;20046;-62
2023/04/15 04:16:22;;;;;;;0.50;0.50;;;;;;;12.27;99.72;96360.88;4998972;28;20137;-63
2023/04/15 04:18:48;;;;;;;0.60;0.60;;;;;;;12.35;99.23;96373.56;4985231;28;20054;-63
2023/04/15 04:21:15;;;;;;;0.50;0.50;;;;;;;12.31;98.76;96367.25;4983715;28;20054;-62
2023/04/15 04:23:42;;;;;;;0.60;0.60;;;;;;;12.23;98.51;96371.22;4983165;28;20117;-63
2023/04/15 04:26:09;;;;;;;0.55;0.55;;;;;;;11.98;99.03;96364.88;4997396;28;20116;-64
2023/04/15 04:28:36;;;;;;;0.60;0.60;;;;;;;11.48;100.00;96368.69;5003091;28;20054;-63
2023/04/15 04:31:02;;;;;;;0.50;0.50;;;;;;;11.45;100.00;96353.66;5004417;28;20081;-63
2023/04/15 04:33:29;;;;;;;0.52;0.52;;;;;;;10.83;100.00;96345.91;5002905;28;20057;-62
2023/04/15 04:35:56;;;;;;;0.50;0.50;;;;;;;10.86;100.00;96337.59;4996604;28;20080;-62
2023/04/15 04:38:22;;;;;;;0.50;0.50;;;;;;;10.56;100.00;96281.66;4984716;28;20054;-63
2023/04/15 04:40:49;;;;;;;0.50;0.50;;;;;;;11.45;100.00;96380.56;4985014;28;20058;-63
2023/04/15 04:43:16;;;;;;;0.50;0.50;;;;;;;11.60;100.00;96376.66;4983633;28;20439;-62
2023/04/15 04:45:42;;;;;;;0.60;0.60;;;;;;;11.65;100.00;96373.53;4984635;28;20054;-62
2023/04/15 04:48:09;;;;;;;0.60;0.60;;;;;;;11.50;100.00;96366.34;4984749;28;20050;-63
2023/04/15 04:50:36;;;;;;;0.50;0.50;;;;;;;11.57;100.00;96366.34;4984637;28;20058;-62
2023/04/15 04:53:02;;;;;;;0.50;0.50;;;;;;;10.77;100.00;96256.03;4984669;28;20109;-63
2023/04/15 04:55:30;;;;;;;0.50;0.50;;;;;;;11.64;100.00;96383.03;4983161;28;20401;-61
2023/04/15 04:57:57;;;;;;;0.60;0.60;;;;;;;11.44;100.00;96340.97;4984984;28;20050;-62
2023/04/15 05:00:24;;;;;;;0.50;0.50;;;;;;;11.84;100.00;96385.06;4984545;28;20073;-63
2023/04/15 05:02:50;;;;;;;0.50;0.50;;;;;;;11.26;100.00;96323.50;4983280;28;20054;-62
2023/04/15 05:05:17;;;;;;;0.57;0.57;;;;;;;11.75;100.00;96345.00;4984117;28;20062;-63
2023/04/15 05:07:44;;;;;;;0.60;0.60;;;;;;;11.60;100.00;96287.91;4984824;28;20058;-64
2023/04/15 05:10:11;;;;;;;0.50;0.50;;;;;;;11.80;100.00;96314.09;4984585;28;20062;-64
2023/04/15 05:12:38;;;;;;;0.60;0.60;;;;;;;12.16;100.00;96368.41;4983695;28;20826;-64
2023/04/15 05:15:05;;;;;;;0.50;0.50;;;;;;;12.23;100.00;96365.66;4988700;28;20133;-63
2023/04/15 05:17:34;;;;;;;0.50;0.50;;;;;;;12.18;100.00;96354.94;5004321;28;20084;-63
2023/04/15 05:20:01;;;;;;;0.60;0.60;;;;;;;12.10;100.00;96367.22;5002810;28;20439;-64
2023/04/15 05:22:28;;;;;;;0.50;0.50;;;;;;;12.13;100.00;96372.00;5003986;28;20584;-64
2023/04/15 05:24:55;;;;;;;0.50;0.50;;;;;;;12.40;100.00;96364.84;5004023;28;20149;-62
2023/04/15 05:27:22;;;;;;;0.50;0.50;;;;;;;12.43;100.00;96363.25;5004325;28;20061;-63
2023/04/15 05:29:49;;;;;;;0.60;0.60;;;;;;;12.51;100.00;96368.41;5002401;28;20077;-65
2023/04/15 05:32:16;;;;;;;0.50;0.50;;;;;;;12.24;100.00;96328.34;5004017;28;20108;-63
2023/04/15 05:34:42;;;;;;;0.60;0.60;;;;;;;12.73;100.00;96389.41;5003481;28;20131;-65
2023/04/15 05:37:09;;;;;;;0.50;0.50;;;;;;;12.88;100.00;96368.69;5003980;28;20129;-62
2023/04/15 05:39:36;;;;;;;0.60;0.60;;;;;;;13.03;99.91;96342.47;5005770;28;20050;-62
2023/04/15 05:42:04;;;;;;;0.60;0.60;;;;;;;13.00;97.89;96293.25;5007665;28;20054;-65
2023/04/15 05:44:31;;;;;;;0.60;0.60;;;;;;;13.22;95.20;96321.72;4997370;28;20058;-63
2023/04/15 05:46:58;;;;;;;0.60;0.60;;;;;;;13.38;94.85;96314.50;5007536;28;20119;-64
2023/04/15 05:49:25;;;;;;;0.60;0.60;;;;;;;14.06;92.76;96364.94;5006082;28;20051;-62
2023/04/15 05:51:51;;;;;;;0.60;0.60;;;;;;;14.07;90.80;96288.56;5007113;28;20483;-63
2023/04/15 05:54:18;;;;;;;0.63;0.63;;;;;;;14.86;87.64;96375.41;5007032;28;20492;-62
2023/04/15 05:56:45;;;;;;;0.60;0.60;;;;;;;15.10;86.26;96379.91;5005654;28;20616;-63
2023/04/15 05:59:12;;;;;;;0.60;0.60;;;;;;;14.84;84.27;96338.75;5005554;28;20104;-63
2023/04/15 06:01:39;;;;;;;0.70;0.70;;;;;;;14.70;84.67;96338.16;5005845;28;20054;-62
2023/04/15 06:04:06;;;;;;;0.70;0.70;;;;;;;15.03;84.90;96390.38;5005741;28;20570;-62
2023/04/15 06:06:33;;;;;;;0.63;0.63;;;;;;;15.27;84.60;96394.84;5007217;28;20061;-61
2023/04/15 06:09:00;;;;;;;0.70;0.70;;;;;;;14.96;83.45;96365.34;5005321;28;20127;-62
2023/04/15 06:11:27;;;;;;;0.60;0.60;;;;;;;15.37;83.24;96409.91;5006963;28;20112;-62
2023/04/15 06:13:53;;;;;;;0.70;0.70;;;;;;;15.45;80.94;96414.22;5006756;28;20575;-62
2023/04/15 06:16:20;;;;;;;0.70;0.70;;;;;;;15.18;81.45;96361.09;5006831;28;20058;-62
2023/04/15 06:18:47;;;;;;;0.60;0.60;;;;;;;15.29;82.34;96347.00;5006614;28;20092;-64
2023/04/15 06:21:14;;;;;;;0.70;0.70;;;;;;;15.47;80.66;96390.28;5006768;28;20092;-62
2023/04/15 06:23:41;;;;;;;0.60;0.60;;;;;;;15.38;81.75;96406.72;5006615;28;20495;-62
2023/04/15 06:26:08;;;;;;;0.60;0.60;;;;;;;15.18;80.79;96359.09;5006425;28;20120;-62
2023/04/15 06:28:35;;;;;;;0.70;0.70;;;;;;;15.40;81.20;96415.47;5005328;28;20046;-63
2023/04/15 06:31:02;;;;;;;0.63;0.63;;;;;;;15.19;80.97;96368.25;5006902;28;20053;-62
2023/04/15 06:33:28;;;;;;;0.70;0.70;;;;;;;15.57;81.05;96422.84;5006717;28;20705;-62
2023/04/15 06:35:55;;;;;;;0.70;0.70;;;;;;;15.58;80.02;96424.44;5006399;28;20061;-62
2023/04/15 06:38:22;;;;;;;0.70;0.70;;;;;;;15.61;80.93;96426.38;5005320;28;20049;-62
2023/04/15 06:40:49;;;;;;;0.60;0.60;;;;;;;14.94;79.15;96289.66;5006480;28;20081;-62
2023/04/15 06:43:15;;;;;;;0.70;0.70;;;;;;;15.66;77.76;96417.56;5004906;28;20056;-62
2023/04/15 06:45:42;;;;;;;0.63;0.63;;;;;;;15.84;80.00;96428.50;5006144;28;20613;-62
2023/04/15 06:48:09;;;;;;;0.75;0.75;;;;;;;15.89;80.13;96437.19;5006197;28;20136;-62
2023/04/15 06:50:35;;;;;;;0.70;0.70;;;;;;;15.97;79.87;96444.25;5004923;28;20068;-62
2023/04/15 06:53:02;;;;;;;0.70;0.70;;;;;;;16.22;78.28;96427.94;5006342;28;20128;-62
2023/04/15 06:55:30;;;;;;;0.70;0.70;;;;;;;16.02;77.52;96429.81;5004388;28;20042;-61
2023/04/15 06:57:57;;;;;;;0.70;0.70;;;;;;;16.22;77.85;96439.09;5006123;28;20053;-62
2023/04/15 07:00:24;;;;;;;0.70;0.70;;;;;;;16.39;77.00;96440.84;5005761;28;20355;-62
2023/04/15 07:02:51;;;;;;;0.70;0.70;;;;;;;16.34;77.57;96446.91;5004351;28;20439;-61
2023/04/15 07:05:19;;;;;;;0.70;0.70;;;;;;;16.20;77.10;96396.81;5005633;28;20430;-61
2023/04/15 07:07:45;;;;;;;1.70;1.70;;;;;;;16.13;79.26;96408.13;5006216;28;20081;-61
2023/04/15 07:10:13;;;;;;;1.58;1.58;;;;;;;16.30;77.80;96404.25;5005600;28;20508;-61
2023/04/15 07:12:41;;;;;;;1.63;1.63;;;;;;;16.74;76.42;96452.72;5020491;28;20050;-62
2023/04/15 07:15:08;;;;;;;1.60;1.60;;;;;;;16.34;74.93;96388.19;5005265;28;20066;-62
2023/04/15 07:17:35;;;;;;;1.60;1.60;;;;;;;16.72;76.60;96443.97;5005821;28;20047;-64
2023/04/15 07:20:03;;;;;;;1.60;1.60;;;;;;;16.68;75.29;96444.00;5005535;28;20046;-63
2023/04/15 07:22:30;;;;;;;1.50;1.50;;;;;;;17.01;74.75;96461.84;5005186;28;20532;-61
2023/04/15 07:24:57;;;;;;;1.60;1.60;;;;;;;16.97;74.49;96452.72;5005162;28;20093;-62
2023/04/15 07:27:23;;;;;;;1.83;1.83;;;;;;;16.91;72.81;96418.06;5005662;28;20076;-62
2023/04/15 07:29:51;;;;;;;1.80;1.80;;;;;;;17.36;72.43;96439.59;5005409;28;20045;-64
2023/04/15 07:32:18;;;;;;;1.88;1.88;;;;;;;17.21;73.44;96448.69;5005453;28;20255;-62
2023/04/15 07:34:45;;;;;;;1.77;1.77;;;;;;;17.35;73.29;96454.03;5003389;28;20089;-62
2023/04/15 07:37:12;;;;;;;1.90;1.90;;;;;;;17.46;70.99;96418.22;5004219;28;20050;-62
2023/04/15 07:39:39;;;;;;;2.10;2.10;;;;;;;17.82;70.39;96458.31;5005204;28;20053;-61
2023/04/15 07:42:05;;;;;;;2.00;2.00;;;;;;;17.65;70.35;96467.88;5004222;28;20049;-62
2023/04/15 07:44:32;;;;;;;1.85;1.85;;;;;;;17.67;71.42;96454.22;5005079;28;20053;-63
2023/04/15 07:46:59;;;;;;;1.67;1.67;;;;;;;17.85;71.04;96438.63;5005192;28;20132;-62
2023/04/15 07:49:25;;;;;;;1.80;1.80;;;;;;;18.48;69.29;96469.31;5003581;28;20050;-63
2023/04/15 07:51:52;;;;;;;1.92;1.92;;;;;;;18.73;66.87;96447.84;5004981;28;20061;-62
2023/04/15 07:54:19;;;;;;;1.90;1.90;;;;;;;18.06;65.17;96337.28;5005022;28;20060;-63
2023/04/15 07:56:46;;;;;;;2.00;2.00;;;;;;;18.96;65.12;96461.72;5003233;28;20096;-64
2023/04/15 07:59:16;;;;;;;1.90;1.90;;;;;;;18.73;65.27;96470.28;5004299;28;20564;-63
2023/04/15 08:01:43;;;;;;;2.30;2.30;;;;;;;18.43;65.23;96467.78;5004477;28;20316;-60
2023/04/15 08:04:10;;;;;;;2.00;2.00;;;;;;;18.61;66.19;96473.78;5004674;28;20351;-63
2023/04/15 08:06:38;;;;;;;1.85;1.85;;;;;;;18.85;65.00;96477.22;5004855;28;20054;-62
2023/04/15 08:09:07;;;;;;;2.10;2.10;;;;;;;18.94;64.02;96474.59;5004730;28;20046;-62
2023/04/15 08:11:33;;;;;;;1.95;1.95;;;;;;;19.23;63.19;96473.47;5004651;28;20046;-63
2023/04/15 08:14:00;;;;;;;2.10;2.10;;;;;;;19.43;62.55;96479.78;5004449;28;20061;-63
2023/04/15 08:16:27;;;;;;;2.08;2.08;;;;;;;19.67;62.01;96471.09;5004459;28;20082;-64
2023/04/15 08:18:55;;;;;;;2.03;2.03;;;;;;;19.55;60.48;96462.16;5003380;28;20449;-62
2023/04/15 08:21:22;;;;;;;2.00;2.00;;;;;;;19.74;60.70;96423.94;5003426;28;20053;-63
2023/04/15 08:23:51;;;;;;;1.80;1.80;;;;;;;19.86;59.47;96420.34;4990847;28;20058;-62
2023/04/15 08:26:19;;;;;;;2.30;2.30;;;;;;;20.03;56.97;96460.44;4984604;28;20055;-63
2023/04/15 08:28:47;;;;;;;2.00;2.00;;;;;;;19.34;60.19;96465.56;4983740;28;20528;-62
2023/04/15 08:31:16;;;;;;;1.85;1.85;;;;;;;19.16;60.39;96464.41;4985269;28;20046;-62
2023/04/15 08:33:43;;;;;;;2.30;2.30;;;;;;;19.37;60.26;96470.31;4984110;28;20156;-63
2023/04/15 08:36:10;;;;;;;2.22;2.22;;;;;;;19.64;61.90;96469.19;4984393;28;20057;-64
2023/04/15 08:38:37;;;;;;;2.15;2.15;;;;;;;18.97;62.39;96468.91;4984049;28;20058;-62
2023/04/15 08:41:22;;;;;;;1.73;1.73;;;;;;;17.40;69.86;96467.53;4999168;28;20493;-64
2023/04/15 08:43:56;;;;;;;1.83;1.83;;;;;;;16.37;72.88;96420.94;4999647;28;20073;-63
2023/04/15 08:46:23;;;;;;;1.60;1.60;;;;;;;16.24;74.94;96461.84;4999199;28;20062;-63
2023/04/15 08:48:51;;;;;;;1.52;1.52;;;;;;;15.58;78.17;96443.97;4984424;28;20508;-62
2023/04/15 08:51:18;;;;;;;1.52;1.52;;;;;;;15.68;77.08;96443.03;4984681;28;20132;-63
2023/04/15 08:53:46;;;;;;;1.38;1.38;;;;;;;15.66;79.57;96456.66;4983031;28;20100;-62
2023/04/15 08:56:17;;;;;;;1.50;1.50;;;;;;;15.82;79.48;96465.19;4984269;28;20133;-63
2023/04/15 08:58:45;;;;;;;1.40;1.40;;;;;;;15.39;79.65;96396.34;4984628;28;20061;-62
2023/04/15 09:01:12;;;;;;;1.52;1.52;;;;;;;15.94;79.04;96461.06;4984170;28;20476;-63
2023/04/15 09:03:39;;;;;;;1.27;1.27;;;;;;;15.22;80.78;96403.72;4984618;28;20058;-62
2023/04/15 09:06:06;;;;;;;1.27;1.27;;;;;;;15.31;82.21;96457.00;4984152;28;20132;-63
2023/04/15 09:08:36;;;;;;;1.30;1.30;;;;;;;15.34;80.66;96422.69;4983007;28;20059;-63
2023/04/15 09:11:02;;;;;;;1.40;1.40;;;;;;;15.17;80.45;96368.66;4984529;28;20058;-63
2023/04/15 09:13:30;;;;;;;1.35;1.35;;;;;;;15.78;78.96;96470.03;5000572;28;20065;-63
2023/04/15 09:15:57;;;;;;;1.40;1.40;;;;;;;15.53;80.19;96458.38;4998165;28;20057;-63
2023/04/15 09:18:32;;;;;;;1.30;1.30;;;;;;;15.21;80.06;96427.22;5006535;28;20537;-64
2023/04/15 09:21:13;;;;;;;1.30;1.30;;;;;;;14.44;80.97;96363.88;5008417;28;20057;-62
2023/04/15 09:23:53;;;;;;;1.30;1.30;;;;;;;15.48;80.73;96456.03;5006734;28;20054;-63
2023/04/15 09:26:39;;;;;;;1.30;1.30;;;;;;;13.94;77.49;96129.56;5006426;28;20140;-63
2023/04/15 09:29:08;;;;;;;1.40;1.40;;;;;;;16.21;75.67;96445.91;5008027;28;20062;-62
2023/04/15 09:31:36;;;;;;;1.50;1.50;;;;;;;16.51;75.40;96447.88;5006263;28;20041;-62
2023/04/15 09:34:03;;;;;;;1.58;1.58;;;;;;;16.94;72.57;96433.97;5007451;28;20421;-63
2023/04/15 09:36:50;;;;;;;1.77;1.77;;;;;;;17.76;70.03;96446.03;5007059;28;20096;-63
2023/04/15 09:39:17;;;;;;;1.75;1.75;;;;;;;18.22;66.51;96429.00;5006281;28;20108;-62
2023/04/15 09:41:44;;;;;;;1.95;1.95;;;;;;;18.75;65.17;96439.78;5005817;28;20474;-62
2023/04/15 09:44:24;;;;;;;1.80;1.80;;;;;;;19.01;61.94;96441.53;5007116;28;20057;-62
2023/04/15 09:46:50;;;;;;;2.10;2.10;;;;;;;18.86;62.44;96439.50;5007091;28;20065;-62
2023/04/15 09:49:18;;;;;;;2.10;2.10;;;;;;;18.88;61.84;96432.25;5007463;28;20090;-61
2023/04/15 09:51:44;;;;;;;2.03;2.03;;;;;;;19.41;60.73;96437.28;5005896;28;20332;-62
2023/04/15 09:54:35;;;;;;;1.98;1.98;;;;;;;19.63;58.86;96431.06;5006852;28;20085;-63
2023/04/15 09:57:08;;;;;;;2.08;2.08;;;;;;;19.98;58.07;96407.56;5005972;28;20042;-62
2023/04/15 09:59:36;;;;;;;2.10;2.10;;;;;;;18.72;61.45;96425.84;5006705;28;20050;-63
2023/04/15 10:02:06;;;;;;;1.95;1.95;;;;;;;18.73;63.12;96424.63;5007071;28;20057;-62
2023/04/15 10:04:36;;;;;;;1.90;1.90;;;;;;;18.81;61.47;96426.03;5006327;28;20046;-62
2023/04/15 10:07:05;;;;;;;2.00;2.00;;;;;;;18.25;62.61;96428.13;5006197;28;20081;-61
2023/04/15 10:09:33;;;;;;;2.05;2.05;;;;;;;18.58;62.79;96429.00;5006509;28;20061;-61
2023/04/15 10:12:03;;;;;;;1.80;1.80;;;;;;;17.52;64.98;96368.91;5005262;28;20054;-61
2023/04/15 10:14:33;;;;;;;2.10;2.10;;;;;;;18.00;63.98;96427.91;5005838;28;20503;-62
2023/04/15 10:17:04;;;;;;;2.05;2.05;;;;;;;18.37;63.17;96416.22;5004598;28;20061;-62
2023/04/15 10:19:35;;;;;;;1.80;1.80;;;;;;;18.43;63.00;96422.16;5004238;28;20512;-62
2023/04/15 10:22:02;;;;;;;1.90;1.90;;;;;;;18.51;60.67;96385.06;5005775;28;20112;-63
2023/04/15 10:24:33;;;;;;;2.10;2.10;;;;;;;18.69;59.34;96419.09;5005288;28;20274;-61
2023/04/15 10:27:02;;;;;;;1.75;1.75;;;;;;;18.03;59.64;96365.38;5005860;28;20061;-62
2023/04/15 10:29:30;;;;;;;1.92;1.92;;;;;;;19.09;56.47;96414.88;5005500;28;20065;-62
2023/04/15 10:31:58;;;;;;;1.88;1.88;;;;;;;18.93;55.64;96411.28;5003963;28;20441;-63
2023/04/15 10:34:26;;;;;;;2.00;2.00;;;;;;;19.78;53.53;96412.56;5002803;28;20057;-63
2023/04/15 10:37:01;;;;;;;1.95;1.95;;;;;;;20.65;51.72;96401.44;5005540;28;20053;-61
2023/04/15 10:39:35;;;;;;;2.25;2.25;;;;;;;20.68;50.79;96405.38;5000867;28;20050;-62
2023/04/15 10:42:16;;;;;;;2.03;2.03;;;;;;;21.51;49.67;96405.75;4985171;28;20057;-62
2023/04/15 10:44:51;;;;;;;2.13;2.13;;;;;;;20.47;49.70;96406.84;4986795;28;20059;-61
2023/04/15 10:47:20;;;;;;;2.00;2.00;;;;;;;20.71;49.32;96393.19;4986996;28;20120;-62
2023/04/15 10:49:59;;;;;;;2.08;2.08;;;;;;;19.47;51.04;96356.84;4986595;28;20050;-64
2023/04/15 10:52:28;;;;;;;1.98;1.98;;;;;;;19.58;51.70;96393.84;4985440;28;20090;-62
2023/04/15 10:55:25;;;;;;;2.03;2.03;;;;;;;19.42;50.05;96388.31;4986256;28;20056;-61
2023/04/15 10:57:59;;;;;;;2.15;2.15;;;;;;;19.78;45.85;96393.69;4983834;28;20081;-63
2023/04/15 11:00:31;;;;;;;2.17;2.17;;;;;;;20.44;46.16;96395.69;4984617;28;20571;-61
2023/04/15 11:03:04;;;;;;;2.20;2.20;;;;;;;21.04;43.22;96388.88;4984767;28;20059;-61
2023/04/15 11:05:40;;;;;;;2.10;2.10;;;;;;;21.35;42.35;96381.38;4985005;28;20655;-63
2023/04/15 11:08:08;;;;;;;2.50;2.40;;;;;;;21.55;42.56;96381.81;4984772;28;20069;-63
2023/04/15 11:10:35;;;;;;;2.15;2.15;;;;;;;21.85;41.37;96378.31;4985515;28;20576;-62
2023/04/15 11:13:16;;;;;;;2.50;2.40;;;;;;;21.58;42.32;96372.44;4982928;28;20056;-62
2023/04/15 11:15:44;;;;;;;2.13;2.13;;;;;;;21.74;40.39;96380.72;4984497;28;20506;-61
2023/04/15 11:18:11;;;;;;;2.35;2.28;;;;;;;21.17;39.69;96369.91;5003778;28;20053;-61
2023/04/15 11:20:39;;;;;;;2.08;2.08;;;;;;;20.56;37.81;96330.19;5003855;28;20140;-62
2023/04/15 11:23:07;;;;;;;2.70;2.60;;;;;;;20.68;40.18;96360.31;5003893;28;20791;-62
2023/04/15 11:25:41;;;;;;;2.25;2.25;;;;;;;21.37;38.21;96367.59;5003541;28;20057;-62
2023/04/15 11:28:10;;;;;;;2.50;2.40;;;;;;;21.30;37.00;96362.22;5004863;28;20122;-62
2023/04/15 11:30:38;;;;;;;2.47;2.40;;;;;;;21.83;37.76;96344.13;5005243;28;20598;-62
2023/04/15 11:33:13;;;;;;;2.55;2.45;;;;;;;21.62;36.34;96277.28;5004942;28;20428;-62